sensor_id;sensor_type;location;lat;lon;timestamp;P1;durP1;ratioP1;P2;durP2;ratioP2
42518;SDS011;28147;47.520;18.920;2023-04-24T00:01:23;5.90;;;2.63;;
42518;SDS011;28147;47.520;18.920;2023-04-24T00:03:48;6.55;;;2.90;;
42518;SDS011;28147;47.520;18.920;2023-04-24T00:06:14;4.20;;;2.95;;
42518;SDS011;28147;47.520;18.920;2023-04-24T00:08:41;6.43;;;2.80;;
42518;SDS011;28147;47.520;18.920;2023-04-24T00:11:07;4.68;;;2.78;;
42518;SDS011;28147;47.520;18.920;2023-04-24T00:13:34;5.70;;;3.25;;
42518;SDS011;28147;47.520;18.920;2023-04-24T00:15:59;4.72;;;2.92;;
42518;SDS011;28147;47.520;18.920;2023-04-24T00:18:25;4.30;;;2.80;;
42518;SDS011;28147;47.520;18.920;2023-04-24T00:20:51;5.68;;;3.00;;
42518;SDS011;28147;47.520;18.920;2023-04-24T00:23:17;5.25;;;3.25;;
42518;SDS011;28147;47.520;18.920;2023-04-24T00:25:42;6.38;;;3.33;;
42518;SDS011;28147;47.520;18.920;2023-04-24T00:28:07;3.83;;;2.58;;
42518;SDS011;28147;47.520;18.920;2023-04-24T00:30:33;7.95;;;3.15;;
42518;SDS011;28147;47.520;18.920;2023-04-24T00:32:58;5.32;;;2.97;;
42518;SDS011;28147;47.520;18.920;2023-04-24T00:35:24;5.10;;;3.40;;
42518;SDS011;28147;47.520;18.920;2023-04-24T00:37:49;5.05;;;3.28;;
42518;SDS011;28147;47.520;18.920;2023-04-24T00:40:15;5.60;;;3.22;;
42518;SDS011;28147;47.520;18.920;2023-04-24T00:42:40;5.50;;;3.08;;
42518;SDS011;28147;47.520;18.920;2023-04-24T00:45:06;7.18;;;3.85;;
42518;SDS011;28147;47.520;18.920;2023-04-24T00:47:34;5.93;;;3.25;;
42518;SDS011;28147;47.520;18.920;2023-04-24T00:50:01;5.95;;;3.30;;
42518;SDS011;28147;47.520;18.920;2023-04-24T00:52:28;5.90;;;3.17;;
42518;SDS011;28147;47.520;18.920;2023-04-24T00:54:56;4.72;;;3.05;;
42518;SDS011;28147;47.520;18.920;2023-04-24T00:57:21;8.93;;;3.03;;
42518;SDS011;28147;47.520;18.920;2023-04-24T00:59:48;5.63;;;3.33;;
42518;SDS011;28147;47.520;18.920;2023-04-24T01:02:14;5.88;;;3.08;;
42518;SDS011;28147;47.520;18.920;2023-04-24T01:04:40;5.22;;;3.00;;
42518;SDS011;28147;47.520;18.920;2023-04-24T01:07:06;6.68;;;3.42;;
42518;SDS011;28147;47.520;18.920;2023-04-24T01:09:35;5.85;;;3.08;;
42518;SDS011;28147;47.520;18.920;2023-04-24T01:12:02;4.22;;;2.97;;
42518;SDS011;28147;47.520;18.920;2023-04-24T01:14:28;6.47;;;3.25;;
42518;SDS011;28147;47.520;18.920;2023-04-24T01:16:53;5.57;;;3.00;;
42518;SDS011;28147;47.520;18.920;2023-04-24T01:19:18;5.70;;;3.13;;
42518;SDS011;28147;47.520;18.920;2023-04-24T01:21:44;5.88;;;2.80;;
42518;SDS011;28147;47.520;18.920;2023-04-24T01:24:12;5.90;;;3.00;;
42518;SDS011;28147;47.520;18.920;2023-04-24T01:26:38;5.90;;;3.08;;
42518;SDS011;28147;47.520;18.920;2023-04-24T01:29:03;6.65;;;3.70;;
42518;SDS011;28147;47.520;18.920;2023-04-24T01:31:29;7.07;;;2.97;;
42518;SDS011;28147;47.520;18.920;2023-04-24T01:33:55;5.90;;;3.38;;
42518;SDS011;28147;47.520;18.920;2023-04-24T01:36:21;7.78;;;3.60;;
42518;SDS011;28147;47.520;18.920;2023-04-24T01:38:48;6.90;;;3.10;;
42518;SDS011;28147;47.520;18.920;2023-04-24T01:41:14;7.30;;;3.50;;
42518;SDS011;28147;47.520;18.920;2023-04-24T01:43:40;7.15;;;3.33;;
42518;SDS011;28147;47.520;18.920;2023-04-24T01:46:06;6.10;;;2.92;;
42518;SDS011;28147;47.520;18.920;2023-04-24T01:48:31;4.43;;;2.92;;
42518;SDS011;28147;47.520;18.920;2023-04-24T01:50:57;6.53;;;4.50;;
42518;SDS011;28147;47.520;18.920;2023-04-24T01:53:22;5.68;;;3.83;;
42518;SDS011;28147;47.520;18.920;2023-04-24T01:55:48;4.88;;;3.13;;
42518;SDS011;28147;47.520;18.920;2023-04-24T01:58:13;5.20;;;3.03;;
42518;SDS011;28147;47.520;18.920;2023-04-24T02:00:39;4.63;;;3.45;;
42518;SDS011;28147;47.520;18.920;2023-04-24T02:03:04;6.47;;;4.22;;
42518;SDS011;28147;47.520;18.920;2023-04-24T02:05:29;8.00;;;3.80;;
42518;SDS011;28147;47.520;18.920;2023-04-24T02:07:55;5.60;;;2.88;;
42518;SDS011;28147;47.520;18.920;2023-04-24T02:10:20;6.53;;;2.97;;
42518;SDS011;28147;47.520;18.920;2023-04-24T02:12:46;7.68;;;3.03;;
42518;SDS011;28147;47.520;18.920;2023-04-24T02:15:12;5.03;;;2.85;;
42518;SDS011;28147;47.520;18.920;2023-04-24T02:17:37;6.22;;;3.30;;
42518;SDS011;28147;47.520;18.920;2023-04-24T02:20:04;5.93;;;3.67;;
42518;SDS011;28147;47.520;18.920;2023-04-24T02:22:30;4.57;;;3.17;;
42518;SDS011;28147;47.520;18.920;2023-04-24T02:24:56;5.50;;;3.15;;
42518;SDS011;28147;47.520;18.920;2023-04-24T02:27:21;5.55;;;3.60;;
42518;SDS011;28147;47.520;18.920;2023-04-24T02:29:46;6.93;;;3.00;;
42518;SDS011;28147;47.520;18.920;2023-04-24T02:32:12;4.28;;;2.90;;
42518;SDS011;28147;47.520;18.920;2023-04-24T02:34:37;4.63;;;2.72;;
42518;SDS011;28147;47.520;18.920;2023-04-24T02:37:03;3.88;;;2.88;;
42518;SDS011;28147;47.520;18.920;2023-04-24T02:39:28;5.55;;;3.20;;
42518;SDS011;28147;47.520;18.920;2023-04-24T02:41:54;5.03;;;2.92;;
42518;SDS011;28147;47.520;18.920;2023-04-24T02:44:19;4.30;;;2.72;;
42518;SDS011;28147;47.520;18.920;2023-04-24T02:46:46;4.43;;;2.10;;
42518;SDS011;28147;47.520;18.920;2023-04-24T02:49:12;3.72;;;2.40;;
42518;SDS011;28147;47.520;18.920;2023-04-24T02:51:37;5.15;;;2.80;;
42518;SDS011;28147;47.520;18.920;2023-04-24T02:54:05;4.55;;;2.55;;
42518;SDS011;28147;47.520;18.920;2023-04-24T02:56:31;6.05;;;2.95;;
42518;SDS011;28147;47.520;18.920;2023-04-24T02:58:57;5.78;;;3.03;;
42518;SDS011;28147;47.520;18.920;2023-04-24T03:01:22;3.72;;;2.63;;
42518;SDS011;28147;47.520;18.920;2023-04-24T03:03:47;4.88;;;2.80;;
42518;SDS011;28147;47.520;18.920;2023-04-24T03:06:13;4.63;;;2.63;;
42518;SDS011;28147;47.520;18.920;2023-04-24T03:08:38;4.55;;;2.72;;
42518;SDS011;28147;47.520;18.920;2023-04-24T03:11:03;5.80;;;3.00;;
42518;SDS011;28147;47.520;18.920;2023-04-24T03:13:29;5.47;;;2.70;;
42518;SDS011;28147;47.520;18.920;2023-04-24T03:15:54;5.93;;;3.42;;
42518;SDS011;28147;47.520;18.920;2023-04-24T03:18:20;4.93;;;2.83;;
42518;SDS011;28147;47.520;18.920;2023-04-24T03:20:45;3.55;;;2.38;;
42518;SDS011;28147;47.520;18.920;2023-04-24T03:23:12;5.32;;;3.25;;
42518;SDS011;28147;47.520;18.920;2023-04-24T03:25:37;3.47;;;2.45;;
42518;SDS011;28147;47.520;18.920;2023-04-24T03:28:03;4.63;;;2.75;;
42518;SDS011;28147;47.520;18.920;2023-04-24T03:30:29;4.40;;;2.70;;
42518;SDS011;28147;47.520;18.920;2023-04-24T03:32:55;3.30;;;2.30;;
42518;SDS011;28147;47.520;18.920;2023-04-24T03:35:20;3.10;;;1.95;;
42518;SDS011;28147;47.520;18.920;2023-04-24T03:37:47;4.05;;;1.90;;
42518;SDS011;28147;47.520;18.920;2023-04-24T03:40:12;4.05;;;2.75;;
42518;SDS011;28147;47.520;18.920;2023-04-24T03:42:38;4.07;;;2.42;;
42518;SDS011;28147;47.520;18.920;2023-04-24T03:45:04;3.33;;;2.10;;
42518;SDS011;28147;47.520;18.920;2023-04-24T03:47:30;3.63;;;2.13;;
42518;SDS011;28147;47.520;18.920;2023-04-24T03:49:55;4.70;;;2.33;;
42518;SDS011;28147;47.520;18.920;2023-04-24T03:52:21;3.85;;;2.42;;
42518;SDS011;28147;47.520;18.920;2023-04-24T03:54:46;4.07;;;2.58;;
42518;SDS011;28147;47.520;18.920;2023-04-24T03:57:12;3.05;;;1.83;;
42518;SDS011;28147;47.520;18.920;2023-04-24T03:59:37;5.22;;;2.35;;
42518;SDS011;28147;47.520;18.920;2023-04-24T04:02:02;3.83;;;2.25;;
42518;SDS011;28147;47.520;18.920;2023-04-24T04:04:28;4.32;;;2.60;;
42518;SDS011;28147;47.520;18.920;2023-04-24T04:06:53;4.13;;;2.70;;
42518;SDS011;28147;47.520;18.920;2023-04-24T04:09:19;5.43;;;2.65;;
42518;SDS011;28147;47.520;18.920;2023-04-24T04:11:44;6.40;;;2.58;;
42518;SDS011;28147;47.520;18.920;2023-04-24T04:14:10;5.63;;;2.65;;
42518;SDS011;28147;47.520;18.920;2023-04-24T04:16:35;4.95;;;2.55;;
42518;SDS011;28147;47.520;18.920;2023-04-24T04:19:03;4.30;;;2.90;;
42518;SDS011;28147;47.520;18.920;2023-04-24T04:21:29;5.80;;;2.90;;
42518;SDS011;28147;47.520;18.920;2023-04-24T04:23:56;3.28;;;2.30;;
42518;SDS011;28147;47.520;18.920;2023-04-24T04:26:21;3.25;;;2.20;;
42518;SDS011;28147;47.520;18.920;2023-04-24T04:28:50;4.43;;;2.83;;
42518;SDS011;28147;47.520;18.920;2023-04-24T04:31:16;4.53;;;3.03;;
42518;SDS011;28147;47.520;18.920;2023-04-24T04:33:41;4.15;;;2.72;;
42518;SDS011;28147;47.520;18.920;2023-04-24T04:36:07;3.42;;;2.20;;
42518;SDS011;28147;47.520;18.920;2023-04-24T04:38:33;5.28;;;3.00;;
42518;SDS011;28147;47.520;18.920;2023-04-24T04:41:00;4.22;;;3.00;;
42518;SDS011;28147;47.520;18.920;2023-04-24T04:43:25;5.57;;;3.67;;
42518;SDS011;28147;47.520;18.920;2023-04-24T04:45:51;6.25;;;3.90;;
42518;SDS011;28147;47.520;18.920;2023-04-24T04:48:17;5.72;;;2.95;;
42518;SDS011;28147;47.520;18.920;2023-04-24T04:50:43;6.28;;;3.50;;
42518;SDS011;28147;47.520;18.920;2023-04-24T04:53:09;4.90;;;2.80;;
42518;SDS011;28147;47.520;18.920;2023-04-24T04:55:34;7.68;;;3.00;;
42518;SDS011;28147;47.520;18.920;2023-04-24T04:58:00;7.97;;;3.67;;
42518;SDS011;28147;47.520;18.920;2023-04-24T05:00:25;5.70;;;3.40;;
42518;SDS011;28147;47.520;18.920;2023-04-24T05:02:52;7.30;;;2.88;;
42518;SDS011;28147;47.520;18.920;2023-04-24T05:05:17;6.07;;;2.90;;
42518;SDS011;28147;47.520;18.920;2023-04-24T05:07:43;7.90;;;3.42;;
42518;SDS011;28147;47.520;18.920;2023-04-24T05:10:09;6.93;;;3.65;;
42518;SDS011;28147;47.520;18.920;2023-04-24T05:12:35;6.13;;;3.00;;
42518;SDS011;28147;47.520;18.920;2023-04-24T05:15:01;5.05;;;2.92;;
42518;SDS011;28147;47.520;18.920;2023-04-24T05:17:26;5.20;;;3.17;;
42518;SDS011;28147;47.520;18.920;2023-04-24T05:19:52;7.07;;;3.78;;
42518;SDS011;28147;47.520;18.920;2023-04-24T05:22:17;5.45;;;3.58;;
42518;SDS011;28147;47.520;18.920;2023-04-24T05:24:44;6.68;;;3.40;;
42518;SDS011;28147;47.520;18.920;2023-04-24T05:27:10;6.20;;;2.97;;
42518;SDS011;28147;47.520;18.920;2023-04-24T05:29:35;6.38;;;2.88;;
42518;SDS011;28147;47.520;18.920;2023-04-24T05:32:01;4.95;;;2.78;;
42518;SDS011;28147;47.520;18.920;2023-04-24T05:34:26;8.02;;;3.50;;
42518;SDS011;28147;47.520;18.920;2023-04-24T05:36:52;6.63;;;3.40;;
42518;SDS011;28147;47.520;18.920;2023-04-24T05:39:18;5.68;;;3.25;;
42518;SDS011;28147;47.520;18.920;2023-04-24T05:41:44;6.15;;;3.88;;
42518;SDS011;28147;47.520;18.920;2023-04-24T05:44:10;6.63;;;3.80;;
42518;SDS011;28147;47.520;18.920;2023-04-24T05:46:35;7.10;;;3.80;;
42518;SDS011;28147;47.520;18.920;2023-04-24T05:49:01;7.88;;;4.85;;
42518;SDS011;28147;47.520;18.920;2023-04-24T05:51:27;7.00;;;3.97;;
42518;SDS011;28147;47.520;18.920;2023-04-24T05:53:53;8.43;;;3.97;;
42518;SDS011;28147;47.520;18.920;2023-04-24T05:56:18;6.22;;;3.83;;
42518;SDS011;28147;47.520;18.920;2023-04-24T05:58:45;6.55;;;3.78;;
42518;SDS011;28147;47.520;18.920;2023-04-24T06:01:12;8.45;;;4.18;;
42518;SDS011;28147;47.520;18.920;2023-04-24T06:03:39;5.55;;;4.15;;
42518;SDS011;28147;47.520;18.920;2023-04-24T06:06:06;6.95;;;4.05;;
42518;SDS011;28147;47.520;18.920;2023-04-24T06:08:32;5.25;;;3.65;;
42518;SDS011;28147;47.520;18.920;2023-04-24T06:10:57;7.05;;;3.63;;
42518;SDS011;28147;47.520;18.920;2023-04-24T06:13:23;7.00;;;3.75;;
42518;SDS011;28147;47.520;18.920;2023-04-24T06:15:49;7.70;;;4.35;;
42518;SDS011;28147;47.520;18.920;2023-04-24T06:18:15;6.97;;;3.65;;
42518;SDS011;28147;47.520;18.920;2023-04-24T06:20:40;7.90;;;4.00;;
42518;SDS011;28147;47.520;18.920;2023-04-24T06:23:06;7.28;;;4.25;;
42518;SDS011;28147;47.520;18.920;2023-04-24T06:25:31;7.38;;;4.82;;
42518;SDS011;28147;47.520;18.920;2023-04-24T06:27:56;8.85;;;4.10;;
42518;SDS011;28147;47.520;18.920;2023-04-24T06:30:22;9.65;;;4.53;;
42518;SDS011;28147;47.520;18.920;2023-04-24T06:32:48;7.30;;;4.90;;
42518;SDS011;28147;47.520;18.920;2023-04-24T06:35:13;7.60;;;4.68;;
42518;SDS011;28147;47.520;18.920;2023-04-24T06:37:39;7.75;;;5.07;;
42518;SDS011;28147;47.520;18.920;2023-04-24T06:40:06;9.18;;;5.38;;
42518;SDS011;28147;47.520;18.920;2023-04-24T06:42:32;9.95;;;4.90;;
42518;SDS011;28147;47.520;18.920;2023-04-24T06:44:57;8.77;;;5.07;;
42518;SDS011;28147;47.520;18.920;2023-04-24T06:47:23;9.20;;;4.78;;
42518;SDS011;28147;47.520;18.920;2023-04-24T06:49:48;10.02;;;5.18;;
42518;SDS011;28147;47.520;18.920;2023-04-24T06:52:16;8.85;;;4.90;;
42518;SDS011;28147;47.520;18.920;2023-04-24T06:54:41;8.60;;;5.45;;
42518;SDS011;28147;47.520;18.920;2023-04-24T06:57:07;10.63;;;5.32;;
42518;SDS011;28147;47.520;18.920;2023-04-24T06:59:33;7.28;;;4.72;;
42518;SDS011;28147;47.520;18.920;2023-04-24T07:01:58;9.40;;;4.97;;
42518;SDS011;28147;47.520;18.920;2023-04-24T07:04:24;8.82;;;4.97;;
42518;SDS011;28147;47.520;18.920;2023-04-24T07:06:50;10.43;;;5.03;;
42518;SDS011;28147;47.520;18.920;2023-04-24T07:09:16;7.15;;;4.50;;
42518;SDS011;28147;47.520;18.920;2023-04-24T07:11:43;6.88;;;4.28;;
42518;SDS011;28147;47.520;18.920;2023-04-24T07:14:09;6.65;;;4.45;;
42518;SDS011;28147;47.520;18.920;2023-04-24T07:16:35;7.03;;;4.75;;
42518;SDS011;28147;47.520;18.920;2023-04-24T07:19:00;9.02;;;4.95;;
42518;SDS011;28147;47.520;18.920;2023-04-24T07:21:26;8.32;;;4.38;;
42518;SDS011;28147;47.520;18.920;2023-04-24T07:23:52;8.20;;;5.10;;
42518;SDS011;28147;47.520;18.920;2023-04-24T07:26:17;6.68;;;5.07;;
42518;SDS011;28147;47.520;18.920;2023-04-24T07:28:43;7.93;;;5.07;;
42518;SDS011;28147;47.520;18.920;2023-04-24T07:31:08;12.38;;;6.55;;
42518;SDS011;28147;47.520;18.920;2023-04-24T07:33:35;7.50;;;4.93;;
42518;SDS011;28147;47.520;18.920;2023-04-24T07:36:01;9.63;;;5.18;;
42518;SDS011;28147;47.520;18.920;2023-04-24T07:38:28;9.63;;;5.28;;
42518;SDS011;28147;47.520;18.920;2023-04-24T07:40:54;7.25;;;4.18;;
42518;SDS011;28147;47.520;18.920;2023-04-24T07:43:20;7.10;;;5.00;;
42518;SDS011;28147;47.520;18.920;2023-04-24T07:45:46;6.93;;;4.38;;
42518;SDS011;28147;47.520;18.920;2023-04-24T07:48:11;6.18;;;4.20;;
42518;SDS011;28147;47.520;18.920;2023-04-24T07:50:39;7.43;;;4.07;;
42518;SDS011;28147;47.520;18.920;2023-04-24T07:53:05;9.15;;;4.63;;
42518;SDS011;28147;47.520;18.920;2023-04-24T07:55:30;6.90;;;3.40;;
42518;SDS011;28147;47.520;18.920;2023-04-24T07:57:56;7.85;;;3.28;;
42518;SDS011;28147;47.520;18.920;2023-04-24T08:00:21;6.00;;;3.30;;
42518;SDS011;28147;47.520;18.920;2023-04-24T08:02:47;6.00;;;3.72;;
42518;SDS011;28147;47.520;18.920;2023-04-24T08:05:12;7.18;;;4.00;;
42518;SDS011;28147;47.520;18.920;2023-04-24T08:07:38;6.68;;;4.03;;
42518;SDS011;28147;47.520;18.920;2023-04-24T08:10:03;7.82;;;3.83;;
42518;SDS011;28147;47.520;18.920;2023-04-24T08:12:29;5.82;;;4.00;;
42518;SDS011;28147;47.520;18.920;2023-04-24T08:14:55;9.35;;;4.13;;
42518;SDS011;28147;47.520;18.920;2023-04-24T08:17:20;8.45;;;4.47;;
42518;SDS011;28147;47.520;18.920;2023-04-24T08:19:46;6.25;;;4.38;;
42518;SDS011;28147;47.520;18.920;2023-04-24T08:22:16;7.22;;;4.88;;
42518;SDS011;28147;47.520;18.920;2023-04-24T08:24:42;9.65;;;4.45;;
42518;SDS011;28147;47.520;18.920;2023-04-24T08:27:08;8.27;;;4.35;;
42518;SDS011;28147;47.520;18.920;2023-04-24T08:29:34;7.85;;;4.45;;
42518;SDS011;28147;47.520;18.920;2023-04-24T08:31:59;7.13;;;4.60;;
42518;SDS011;28147;47.520;18.920;2023-04-24T08:34:25;8.80;;;4.63;;
42518;SDS011;28147;47.520;18.920;2023-04-24T08:36:50;6.32;;;4.20;;
42518;SDS011;28147;47.520;18.920;2023-04-24T08:39:16;8.05;;;4.70;;
42518;SDS011;28147;47.520;18.920;2023-04-24T08:41:43;6.70;;;4.15;;
42518;SDS011;28147;47.520;18.920;2023-04-24T08:44:08;6.18;;;4.07;;
42518;SDS011;28147;47.520;18.920;2023-04-24T08:46:35;7.03;;;4.32;;
42518;SDS011;28147;47.520;18.920;2023-04-24T08:49:01;8.07;;;4.80;;
42518;SDS011;28147;47.520;18.920;2023-04-24T08:51:27;7.20;;;4.68;;
42518;SDS011;28147;47.520;18.920;2023-04-24T08:53:55;6.85;;;4.22;;
42518;SDS011;28147;47.520;18.920;2023-04-24T08:56:22;7.03;;;4.60;;
42518;SDS011;28147;47.520;18.920;2023-04-24T08:58:50;6.35;;;3.90;;
42518;SDS011;28147;47.520;18.920;2023-04-24T09:01:16;8.10;;;4.72;;
42518;SDS011;28147;47.520;18.920;2023-04-24T09:03:46;7.45;;;4.38;;
42518;SDS011;28147;47.520;18.920;2023-04-24T09:06:14;9.27;;;5.55;;
42518;SDS011;28147;47.520;18.920;2023-04-24T09:08:41;6.65;;;4.38;;
42518;SDS011;28147;47.520;18.920;2023-04-24T09:11:08;6.82;;;4.13;;
42518;SDS011;28147;47.520;18.920;2023-04-24T09:13:34;7.45;;;4.93;;
42518;SDS011;28147;47.520;18.920;2023-04-24T09:16:00;7.32;;;4.47;;
42518;SDS011;28147;47.520;18.920;2023-04-24T09:18:26;8.57;;;4.38;;
42518;SDS011;28147;47.520;18.920;2023-04-24T09:20:58;6.05;;;3.90;;
42518;SDS011;28147;47.520;18.920;2023-04-24T09:23:28;6.78;;;3.97;;
42518;SDS011;28147;47.520;18.920;2023-04-24T09:25:55;6.97;;;4.35;;
42518;SDS011;28147;47.520;18.920;2023-04-24T09:28:25;7.35;;;3.90;;
42518;SDS011;28147;47.520;18.920;2023-04-24T09:31:02;6.43;;;3.90;;
42518;SDS011;28147;47.520;18.920;2023-04-24T09:36:34;7.43;;;4.20;;
42518;SDS011;28147;47.520;18.920;2023-04-24T09:39:05;6.75;;;4.15;;
42518;SDS011;28147;47.520;18.920;2023-04-24T09:41:33;6.53;;;4.25;;
42518;SDS011;28147;47.520;18.920;2023-04-24T09:44:10;9.50;;;4.03;;
42518;SDS011;28147;47.520;18.920;2023-04-24T09:46:41;7.10;;;5.18;;
42518;SDS011;28147;47.520;18.920;2023-04-24T09:49:14;8.70;;;5.53;;
42518;SDS011;28147;47.520;18.920;2023-04-24T09:51:41;10.20;;;4.70;;
42518;SDS011;28147;47.520;18.920;2023-04-24T09:54:17;8.60;;;5.00;;
42518;SDS011;28147;47.520;18.920;2023-04-24T09:56:50;7.30;;;5.10;;
42518;SDS011;28147;47.520;18.920;2023-04-24T09:59:17;7.25;;;4.85;;
42518;SDS011;28147;47.520;18.920;2023-04-24T10:01:43;8.20;;;5.05;;
42518;SDS011;28147;47.520;18.920;2023-04-24T10:04:19;10.07;;;5.78;;
42518;SDS011;28147;47.520;18.920;2023-04-24T10:06:47;6.30;;;4.90;;
42518;SDS011;28147;47.520;18.920;2023-04-24T10:09:14;9.30;;;5.20;;
42518;SDS011;28147;47.520;18.920;2023-04-24T10:11:43;8.02;;;5.63;;
42518;SDS011;28147;47.520;18.920;2023-04-24T10:14:13;8.95;;;5.38;;
42518;SDS011;28147;47.520;18.920;2023-04-24T10:16:41;9.75;;;5.43;;
42518;SDS011;28147;47.520;18.920;2023-04-24T10:19:08;11.40;;;5.90;;
42518;SDS011;28147;47.520;18.920;2023-04-24T10:21:34;9.48;;;5.93;;
42518;SDS011;28147;47.520;18.920;2023-04-24T10:24:00;7.10;;;5.35;;
42518;SDS011;28147;47.520;18.920;2023-04-24T10:26:28;9.50;;;5.13;;
42518;SDS011;28147;47.520;18.920;2023-04-24T10:28:54;7.90;;;4.93;;
42518;SDS011;28147;47.520;18.920;2023-04-24T10:31:22;9.35;;;5.75;;
42518;SDS011;28147;47.520;18.920;2023-04-24T10:33:49;8.85;;;6.05;;
42518;SDS011;28147;47.520;18.920;2023-04-24T10:36:16;8.23;;;5.72;;
42518;SDS011;28147;47.520;18.920;2023-04-24T10:38:42;13.38;;;7.07;;
42518;SDS011;28147;47.520;18.920;2023-04-24T10:41:11;9.13;;;6.10;;
42518;SDS011;28147;47.520;18.920;2023-04-24T10:46:37;8.32;;;5.35;;
42518;SDS011;28147;47.520;18.920;2023-04-24T10:49:07;10.18;;;5.15;;
42518;SDS011;28147;47.520;18.920;2023-04-24T10:51:49;6.90;;;5.47;;
42518;SDS011;28147;47.520;18.920;2023-04-24T10:54:33;7.70;;;6.03;;
42518;SDS011;28147;47.520;18.920;2023-04-24T10:59:47;10.18;;;6.03;;
42518;SDS011;28147;47.520;18.920;2023-04-24T11:02:17;12.13;;;6.07;;
42518;SDS011;28147;47.520;18.920;2023-04-24T11:04:43;9.00;;;6.88;;
42518;SDS011;28147;47.520;18.920;2023-04-24T11:07:10;8.45;;;5.55;;
42518;SDS011;28147;47.520;18.920;2023-04-24T11:09:36;7.47;;;5.72;;
42518;SDS011;28147;47.520;18.920;2023-04-24T11:12:08;9.68;;;6.30;;
42518;SDS011;28147;47.520;18.920;2023-04-24T11:17:34;9.00;;;5.82;;
42518;SDS011;28147;47.520;18.920;2023-04-24T11:22:33;7.50;;;4.47;;
42518;SDS011;28147;47.520;18.920;2023-04-24T11:25:00;10.68;;;5.60;;
42518;SDS011;28147;47.520;18.920;2023-04-24T11:27:30;9.20;;;4.40;;
42518;SDS011;28147;47.520;18.920;2023-04-24T11:30:00;5.18;;;3.15;;
42518;SDS011;28147;47.520;18.920;2023-04-24T11:32:35;6.35;;;2.97;;
42518;SDS011;28147;47.520;18.920;2023-04-24T11:35:05;4.90;;;2.67;;
42518;SDS011;28147;47.520;18.920;2023-04-24T11:40:05;4.60;;;2.55;;
42518;SDS011;28147;47.520;18.920;2023-04-24T11:42:35;3.95;;;2.00;;
42518;SDS011;28147;47.520;18.920;2023-04-24T11:45:02;4.90;;;2.42;;
42518;SDS011;28147;47.520;18.920;2023-04-24T11:47:33;4.18;;;2.17;;
42518;SDS011;28147;47.520;18.920;2023-04-24T11:49:59;5.32;;;2.20;;
42518;SDS011;28147;47.520;18.920;2023-04-24T11:52:25;5.28;;;2.50;;
42518;SDS011;28147;47.520;18.920;2023-04-24T11:54:51;4.95;;;2.53;;
42518;SDS011;28147;47.520;18.920;2023-04-24T11:57:19;5.43;;;2.50;;
42518;SDS011;28147;47.520;18.920;2023-04-24T11:59:45;3.45;;;2.03;;
42518;SDS011;28147;47.520;18.920;2023-04-24T12:02:24;5.68;;;2.40;;
42518;SDS011;28147;47.520;18.920;2023-04-24T12:04:51;3.80;;;2.22;;
42518;SDS011;28147;47.520;18.920;2023-04-24T12:07:17;6.32;;;2.80;;
42518;SDS011;28147;47.520;18.920;2023-04-24T12:09:46;2.80;;;1.77;;
42518;SDS011;28147;47.520;18.920;2023-04-24T12:12:14;5.95;;;2.10;;
42518;SDS011;28147;47.520;18.920;2023-04-24T12:14:52;3.17;;;1.90;;
42518;SDS011;28147;47.520;18.920;2023-04-24T12:17:27;5.88;;;2.38;;
42518;SDS011;28147;47.520;18.920;2023-04-24T12:19:57;4.03;;;2.42;;
42518;SDS011;28147;47.520;18.920;2023-04-24T12:25:27;5.90;;;2.60;;
42518;SDS011;28147;47.520;18.920;2023-04-24T12:27:54;3.38;;;1.83;;
42518;SDS011;28147;47.520;18.920;2023-04-24T12:30:39;4.68;;;2.38;;
42518;SDS011;28147;47.520;18.920;2023-04-24T12:33:09;4.35;;;2.50;;
42518;SDS011;28147;47.520;18.920;2023-04-24T12:35:35;5.43;;;2.10;;
42518;SDS011;28147;47.520;18.920;2023-04-24T12:38:11;3.90;;;2.53;;
42518;SDS011;28147;47.520;18.920;2023-04-24T12:40:38;5.13;;;2.65;;
42518;SDS011;28147;47.520;18.920;2023-04-24T12:43:12;5.75;;;2.80;;
42518;SDS011;28147;47.520;18.920;2023-04-24T12:45:39;7.13;;;2.92;;
42518;SDS011;28147;47.520;18.920;2023-04-24T12:48:05;5.63;;;2.70;;
42518;SDS011;28147;47.520;18.920;2023-04-24T12:50:33;10.90;;;4.10;;
42518;SDS011;28147;47.520;18.920;2023-04-24T12:52:59;6.57;;;2.63;;
42518;SDS011;28147;47.520;18.920;2023-04-24T12:55:25;5.65;;;2.30;;
42518;SDS011;28147;47.520;18.920;2023-04-24T12:57:50;5.28;;;2.75;;
42518;SDS011;28147;47.520;18.920;2023-04-24T13:00:16;4.97;;;2.67;;
42518;SDS011;28147;47.520;18.920;2023-04-24T13:02:42;4.55;;;2.63;;
42518;SDS011;28147;47.520;18.920;2023-04-24T13:05:08;6.15;;;2.90;;
42518;SDS011;28147;47.520;18.920;2023-04-24T13:07:33;4.03;;;2.58;;
42518;SDS011;28147;47.520;18.920;2023-04-24T13:09:59;5.10;;;2.60;;
42518;SDS011;28147;47.520;18.920;2023-04-24T13:12:24;4.78;;;2.63;;
42518;SDS011;28147;47.520;18.920;2023-04-24T13:14:50;3.33;;;2.25;;
42518;SDS011;28147;47.520;18.920;2023-04-24T13:17:16;7.10;;;2.83;;
42518;SDS011;28147;47.520;18.920;2023-04-24T13:19:42;5.72;;;3.10;;
42518;SDS011;28147;47.520;18.920;2023-04-24T13:22:11;9.02;;;4.95;;
42518;SDS011;28147;47.520;18.920;2023-04-24T13:24:37;11.38;;;5.10;;
42518;SDS011;28147;47.520;18.920;2023-04-24T13:27:05;5.53;;;3.38;;
42518;SDS011;28147;47.520;18.920;2023-04-24T13:29:31;5.05;;;3.80;;
42518;SDS011;28147;47.520;18.920;2023-04-24T13:31:56;6.07;;;3.58;;
42518;SDS011;28147;47.520;18.920;2023-04-24T13:34:22;4.97;;;3.55;;
42518;SDS011;28147;47.520;18.920;2023-04-24T13:36:49;5.82;;;3.35;;
42518;SDS011;28147;47.520;18.920;2023-04-24T13:39:16;6.47;;;3.30;;
42518;SDS011;28147;47.520;18.920;2023-04-24T13:41:41;5.60;;;3.47;;
42518;SDS011;28147;47.520;18.920;2023-04-24T13:44:07;6.75;;;3.65;;
42518;SDS011;28147;47.520;18.920;2023-04-24T13:46:33;7.60;;;4.22;;
42518;SDS011;28147;47.520;18.920;2023-04-24T13:48:59;7.57;;;3.92;;
42518;SDS011;28147;47.520;18.920;2023-04-24T13:51:27;7.43;;;3.63;;
42518;SDS011;28147;47.520;18.920;2023-04-24T13:53:53;6.15;;;3.78;;
42518;SDS011;28147;47.520;18.920;2023-04-24T13:56:20;6.40;;;3.80;;
42518;SDS011;28147;47.520;18.920;2023-04-24T13:58:45;5.25;;;3.22;;
42518;SDS011;28147;47.520;18.920;2023-04-24T14:01:11;4.63;;;3.50;;
42518;SDS011;28147;47.520;18.920;2023-04-24T14:03:37;5.65;;;4.00;;
42518;SDS011;28147;47.520;18.920;2023-04-24T14:06:02;5.90;;;3.92;;
42518;SDS011;28147;47.520;18.920;2023-04-24T14:08:28;7.13;;;4.35;;
42518;SDS011;28147;47.520;18.920;2023-04-24T14:10:53;5.85;;;3.50;;
42518;SDS011;28147;47.520;18.920;2023-04-24T14:13:19;6.65;;;4.05;;
42518;SDS011;28147;47.520;18.920;2023-04-24T14:15:45;8.00;;;4.07;;
42518;SDS011;28147;47.520;18.920;2023-04-24T14:18:10;6.68;;;4.00;;
42518;SDS011;28147;47.520;18.920;2023-04-24T14:20:36;5.60;;;4.00;;
42518;SDS011;28147;47.520;18.920;2023-04-24T14:23:01;7.30;;;4.53;;
42518;SDS011;28147;47.520;18.920;2023-04-24T14:25:26;7.38;;;5.10;;
42518;SDS011;28147;47.520;18.920;2023-04-24T14:27:52;8.35;;;5.00;;
42518;SDS011;28147;47.520;18.920;2023-04-24T14:30:18;8.55;;;4.88;;
42518;SDS011;28147;47.520;18.920;2023-04-24T14:32:44;6.28;;;4.38;;
42518;SDS011;28147;47.520;18.920;2023-04-24T14:35:09;7.85;;;4.63;;
42518;SDS011;28147;47.520;18.920;2023-04-24T14:37:35;8.32;;;5.15;;
42518;SDS011;28147;47.520;18.920;2023-04-24T14:40:02;5.95;;;4.20;;
42518;SDS011;28147;47.520;18.920;2023-04-24T14:42:29;7.22;;;4.30;;
42518;SDS011;28147;47.520;18.920;2023-04-24T14:44:54;5.88;;;4.10;;
42518;SDS011;28147;47.520;18.920;2023-04-24T14:47:20;6.45;;;3.92;;
42518;SDS011;28147;47.520;18.920;2023-04-24T14:49:47;5.88;;;4.38;;